Time;durP1;ratioP1;P1;durP2;ratioP2;P2;SDS_P1;SDS_P2;PMS_P1;PMS_P2;Temp;Humidity;BMP_temperature;BMP_pressure;BME280_temperature;BME280_humidity;BME280_pressure;Samples;Min_cycle;Max_cycle;Signal;HPM_P1;HPM_P2
2021/09/05 00:01:36;;;;;;;9.07;7.63;;;;;;;23.80;42.33;94555.63;5031691;28;99468;-49
2021/09/05 00:04:02;;;;;;;13.65;9.02;;;;;;;23.79;42.36;94552.06;5031449;28;96897;-53
2021/09/05 00:06:28;;;;;;;12.18;9.75;;;;;;;23.77;42.08;94542.66;5031990;28;96940;-49
2021/09/05 00:08:54;;;;;;;11.63;9.63;;;;;;;23.82;42.07;94550.44;5031456;28;99920;-48
2021/09/05 00:11:19;;;;;;;12.23;9.32;;;;;;;23.83;42.15;94546.50;5031451;28;98873;-48
2021/09/05 00:13:45;;;;;;;12.82;8.73;;;;;;;23.82;42.34;94545.69;5031655;28;96598;-53
2021/09/05 00:16:10;;;;;;;11.05;9.02;;;;;;;23.82;42.39;94553.97;5023149;28;96928;-49
2021/09/05 00:18:36;;;;;;;11.20;9.10;;;;;;;23.78;42.10;94544.22;5017838;28;99634;-50
2021/09/05 00:21:01;;;;;;;9.23;8.25;;;;;;;23.82;42.39;94555.97;5017845;28;100317;-49
2021/09/05 00:23:26;;;;;;;9.63;7.82;;;;;;;23.81;42.22;94559.94;5018599;28;96785;-49
2021/09/05 00:25:52;;;;;;;9.50;7.72;;;;;;;23.82;42.04;94555.97;5018311;28;96944;-53
2021/09/05 00:28:17;;;;;;;6.47;5.75;;;;;;;23.86;42.38;94545.63;5017388;28;99670;-48
2021/09/05 00:30:43;;;;;;;8.73;5.90;;;;;;;23.90;42.30;94540.81;5017601;28;98190;-51
2021/09/05 00:33:08;;;;;;;5.70;4.90;;;;;;;23.89;42.87;94544.78;5018618;28;97664;-48
2021/09/05 00:35:34;;;;;;;4.57;4.18;;;;;;;23.92;42.49;94543.94;5018212;28;96949;-52
2021/09/05 00:38:00;;;;;;;5.32;4.40;;;;;;;23.94;42.30;94547.03;5017543;28;99687;-49
2021/09/05 00:40:25;;;;;;;4.90;4.50;;;;;;;23.94;42.51;94547.03;5017378;28;99141;-50
2021/09/05 00:42:51;;;;;;;4.88;4.10;;;;;;;23.98;42.16;94574.56;5017943;28;96763;-50
2021/09/05 00:45:16;;;;;;;5.03;4.53;;;;;;;23.90;42.44;94568.41;5017836;28;96907;-53
2021/09/05 00:47:41;;;;;;;7.45;5.97;;;;;;;23.87;42.20;94574.75;5017477;28;100032;-49
2021/09/05 00:50:08;;;;;;;6.10;5.28;;;;;;;23.88;42.05;94575.56;5017194;28;99459;-48
2021/09/05 00:52:33;;;;;;;7.97;5.38;;;;;;;23.84;41.79;94586.66;4999894;28;96684;-51
2021/09/05 00:54:59;;;;;;;5.43;4.78;;;;;;;23.78;41.53;94591.09;5017974;28;96982;-52
2021/09/05 00:57:24;;;;;;;8.18;5.80;;;;;;;23.79;41.51;94584.38;4982896;28;99650;-48
2021/09/05 00:59:50;;;;;;;5.65;4.75;;;;;;;23.72;41.67;94590.78;5017304;28;99247;-50
2021/09/05 01:02:15;;;;;;;6.55;4.72;;;;;;;23.71;41.63;94582.97;5017736;28;96711;-50
2021/09/05 01:04:41;;;;;;;7.63;4.97;;;;;;;23.65;41.58;94591.72;5016661;28;96976;-50
2021/09/05 01:07:08;;;;;;;6.05;4.93;;;;;;;23.65;41.51;94591.72;5017148;28;99105;-49
2021/09/05 01:09:33;;;;;;;7.72;5.55;;;;;;;23.62;41.34;94589.78;5016919;28;99666;-49
2021/09/05 01:11:59;;;;;;;5.97;4.78;;;;;;;23.60;41.28;94594.16;4982656;28;96871;-54
2021/09/05 01:14:25;;;;;;;7.00;5.35;;;;;;;23.54;41.53;94596.63;5017539;28;96996;-53
2021/09/05 01:16:50;;;;;;;5.07;4.57;;;;;;;23.56;41.36;94594.22;5017075;28;99885;-49
2021/09/05 01:19:17;;;;;;;5.85;5.25;;;;;;;23.53;41.18;94595.06;5016680;28;99595;-50
2021/09/05 01:21:45;;;;;;;8.90;5.93;;;;;;;23.54;41.31;94593.88;5017490;28;96733;-50
2021/09/05 01:24:10;;;;;;;7.57;5.53;;;;;;;23.46;41.30;94595.19;5017400;28;96910;-50
2021/09/05 01:26:38;;;;;;;8.38;6.40;;;;;;;23.43;41.24;94590.50;5016023;28;99563;-47
2021/09/05 01:29:03;;;;;;;11.25;6.07;;;;;;;23.38;41.18;94595.31;5016072;28;98995;-50
2021/09/05 01:31:42;;;;;;;7.72;5.32;;;;;;;23.37;41.56;94588.22;5017416;28;97343;-50
2021/09/05 01:34:08;;;;;;;5.57;4.07;;;;;;;23.42;41.49;94591.72;5017478;28;96892;-48
2021/09/05 01:36:34;;;;;;;4.53;4.05;;;;;;;23.46;41.70;94595.19;5016575;28;99281;-48
2021/09/05 01:38:59;;;;;;;3.92;3.60;;;;;;;23.46;41.66;94590.47;5016572;28;99639;-47
2021/09/05 01:41:25;;;;;;;3.60;3.30;;;;;;;23.54;41.93;94599.38;5016989;28;96678;-52
2021/09/05 01:43:59;;;;;;;3.60;3.20;;;;;;;23.58;41.78;94569.78;5017068;28;96954;-55
2021/09/05 01:46:24;;;;;;;3.58;3.25;;;;;;;23.63;41.89;94568.50;5016480;28;99429;-51
2021/09/05 01:48:50;;;;;;;3.30;2.85;;;;;;;23.63;41.82;94572.06;5016575;28;103963;-53
2021/09/05 01:51:15;;;;;;;4.47;3.00;;;;;;;23.69;41.95;94572.34;5017079;28;97269;-48
2021/09/05 01:53:40;;;;;;;3.63;3.33;;;;;;;23.72;41.87;94581.75;5016987;28;96881;-53
2021/09/05 01:56:06;;;;;;;4.57;4.18;;;;;;;23.74;41.97;94576.59;5016340;28;101893;-51
2021/09/05 01:58:31;;;;;;;5.57;5.07;;;;;;;23.77;42.10;94575.75;5016273;28;99115;-52
2021/09/05 02:00:57;;;;;;;6.10;5.50;;;;;;;23.79;42.14;94579.63;5016728;28;96828;-50
2021/09/05 02:03:22;;;;;;;6.25;5.65;;;;;;;23.80;42.01;94580.44;5016479;28;96923;-50
2021/09/05 02:05:48;;;;;;;6.47;5.80;;;;;;;23.81;42.37;94587.50;5016488;28;101402;-48
2021/09/05 02:08:13;;;;;;;6.07;5.47;;;;;;;23.84;42.90;94589.41;5015914;28;100338;-49
2021/09/05 02:10:39;;;;;;;8.20;5.22;;;;;;;23.85;43.27;94593.69;5016741;28;96816;-51
2021/09/05 02:13:04;;;;;;;7.00;5.10;;;;;;;23.88;43.90;94590.09;5016530;28;97043;-49
2021/09/05 02:15:29;;;;;;;5.20;4.70;;;;;;;23.91;43.98;94592.03;5016664;28;97626;-49
2021/09/05 02:17:55;;;;;;;6.22;4.30;;;;;;;23.93;44.39;94586.09;5015768;28;106224;-51
2021/09/05 02:20:20;;;;;;;5.32;4.82;;;;;;;23.93;44.75;94589.63;5016686;28;96827;-50
2021/09/05 02:22:46;;;;;;;5.38;4.78;;;;;;;23.93;45.23;94595.13;5016301;28;96877;-50
2021/09/05 02:25:11;;;;;;;5.78;4.97;;;;;;;23.95;46.03;94603.75;5015512;28;99781;-47
2021/09/05 02:27:36;;;;;;;6.25;4.90;;;;;;;23.99;45.80;94603.75;5016239;28;101456;-52
2021/09/05 02:30:03;;;;;;;5.65;4.32;;;;;;;24.03;45.89;94609.19;5016540;28;96716;-50
2021/09/05 02:32:29;;;;;;;4.93;3.28;;;;;;;24.05;45.74;94612.28;5015853;28;97047;-53
2021/09/05 02:34:54;;;;;;;3.40;2.95;;;;;;;24.09;45.37;94613.00;5014439;28;99513;-55
2021/09/05 02:37:19;;;;;;;3.95;3.00;;;;;;;24.06;45.52;94611.88;5014649;28;98840;-50
2021/09/05 02:39:45;;;;;;;2.55;2.38;;;;;;;24.09;45.36;94604.72;5016399;28;96673;-54
2021/09/05 02:42:10;;;;;;;2.50;2.30;;;;;;;24.14;45.38;94609.75;5016526;28;96923;-52
2021/09/05 02:44:37;;;;;;;3.15;2.10;;;;;;;24.08;45.31;94594.91;5015964;28;99563;-52
2021/09/05 02:47:02;;;;;;;1.63;1.52;;;;;;;24.18;45.23;94604.94;5015221;28;99338;-53
2021/09/05 02:49:28;;;;;;;1.50;1.40;;;;;;;24.20;45.15;94605.31;5014598;28;97142;-56
2021/09/05 02:51:53;;;;;;;1.38;1.30;;;;;;;24.23;45.16;94600.91;5014688;28;97037;-55
2021/09/05 02:54:18;;;;;;;1.17;1.08;;;;;;;24.22;45.19;94605.66;5014146;28;99085;-55
2021/09/05 02:56:44;;;;;;;1.20;1.10;;;;;;;24.22;45.24;94611.19;5014002;28;99494;-53
2021/09/05 02:59:09;;;;;;;0.95;0.95;;;;;;;24.18;45.27;94607.72;5014538;28;97073;-58
2021/09/05 03:01:35;;;;;;;0.80;0.80;;;;;;;24.20;45.28;94608.06;5014932;28;97195;-51
2021/09/05 03:04:00;;;;;;;0.90;0.90;;;;;;;24.22;45.16;94616.69;5014539;28;103260;-52
2021/09/05 03:06:26;;;;;;;1.00;1.00;;;;;;;24.23;45.20;94623.78;5015552;28;98914;-51
2021/09/05 03:08:51;;;;;;;0.77;0.77;;;;;;;24.23;45.19;94623.78;5015227;28;96703;-47
2021/09/05 03:11:17;;;;;;;0.50;0.50;;;;;;;24.23;45.04;94618.25;5015769;28;96892;-49
2021/09/05 03:13:45;;;;;;;0.65;0.65;;;;;;;24.20;45.17;94613.59;5014778;28;99472;-47
2021/09/05 03:16:11;;;;;;;0.63;0.63;;;;;;;24.22;45.16;94616.69;5014770;28;99492;-48
2021/09/05 03:18:36;;;;;;;0.68;0.68;;;;;;;24.24;44.97;94611.53;5014509;28;96731;-47
2021/09/05 03:21:02;;;;;;;0.40;0.40;;;;;;;24.24;44.74;94617.06;5015165;28;97117;-54
2021/09/05 03:23:27;;;;;;;0.50;0.50;;;;;;;24.24;45.15;94614.28;5014474;28;101739;-49
2021/09/05 03:25:53;;;;;;;0.60;0.60;;;;;;;24.27;45.00;94623.69;5014236;28;100649;-56
2021/09/05 03:28:18;;;;;;;0.45;0.45;;;;;;;24.26;44.91;94628.44;5015003;28;96715;-49
2021/09/05 03:30:43;;;;;;;0.50;0.50;;;;;;;24.27;44.99;94621.72;5014720;28;96945;-49
2021/09/05 03:33:09;;;;;;;0.40;0.40;;;;;;;24.31;44.79;94629.16;5014228;28;99407;-59
2021/09/05 03:35:34;;;;;;;0.50;0.50;;;;;;;24.29;45.03;94629.56;5014510;28;106251;-49
2021/09/05 03:38:00;;;;;;;0.50;0.50;;;;;;;24.30;45.06;94624.84;5015147;28;97862;-53
2021/09/05 03:40:25;;;;;;;0.40;0.40;;;;;;;24.28;45.02;94626.03;5014762;28;97035;-50
2021/09/05 03:42:50;;;;;;;0.45;0.45;;;;;;;24.28;44.93;94637.09;5013890;28;100443;-48
2021/09/05 03:45:16;;;;;;;0.43;0.43;;;;;;;24.30;45.04;94633.13;5014186;28;99478;-50
2021/09/05 03:47:41;;;;;;;0.40;0.40;;;;;;;24.26;45.15;94642.25;5014823;28;96785;-50
2021/09/05 03:50:07;;;;;;;0.30;0.30;;;;;;;24.28;44.90;94637.09;5014722;28;96966;-47
2021/09/05 03:52:33;;;;;;;0.40;0.40;;;;;;;24.31;44.81;94640.19;5018044;28;99691;-47
2021/09/05 03:54:59;;;;;;;0.38;0.38;;;;;;;24.26;45.29;94647.78;5017693;28;99262;-50
2021/09/05 03:57:25;;;;;;;0.50;0.40;;;;;;;24.30;44.97;94647.69;5018164;28;96704;-50
2021/09/05 03:59:50;;;;;;;0.50;0.50;;;;;;;24.28;45.06;94645.38;5018293;28;96934;-51
2021/09/05 04:02:16;;;;;;;0.40;0.40;;;;;;;24.29;45.00;94648.88;5017514;28;102347;-48
2021/09/05 04:04:41;;;;;;;0.40;0.40;;;;;;;24.27;45.02;94646.56;5016911;28;99435;-47
2021/09/05 04:07:10;;;;;;;0.50;0.50;;;;;;;24.21;45.11;94636.44;5017740;28;97308;-52
2021/09/05 04:12:19;;;;;;;0.60;0.60;;;;;;;24.34;45.03;94655.91;5016854;28;97176;-51
2021/09/05 04:14:45;;;;;;;0.90;0.90;;;;;;;24.25;45.20;94654.50;5017037;28;105418;-47
2021/09/05 04:17:10;;;;;;;1.67;1.55;;;;;;;24.27;45.38;94651.28;5017247;28;96746;-51
2021/09/05 04:19:36;;;;;;;1.35;1.25;;;;;;;24.26;45.07;94653.28;5017884;28;96921;-55
2021/09/05 04:22:04;;;;;;;1.15;1.15;;;;;;;24.32;45.22;94661.06;5017393;28;99636;-49
2021/09/05 04:24:30;;;;;;;1.00;1.00;;;;;;;24.30;44.98;94660.72;5017518;28;99333;-56
2021/09/05 04:26:55;;;;;;;1.17;1.10;;;;;;;24.28;45.11;94659.16;5017445;28;96925;-51
2021/09/05 04:29:21;;;;;;;0.70;0.70;;;;;;;24.33;45.28;94665.41;5017808;28;96847;-59
2021/09/05 04:31:47;;;;;;;0.63;0.63;;;;;;;24.30;45.27;94661.47;5016655;28;99035;-53
2021/09/05 04:34:12;;;;;;;0.80;0.80;;;;;;;24.34;44.97;94672.47;5017063;28;99203;-51
2021/09/05 04:36:38;;;;;;;0.50;0.50;;;;;;;24.36;45.08;94664.56;5017951;28;96717;-52
2021/09/05 04:39:03;;;;;;;0.80;0.73;;;;;;;24.34;44.98;94664.97;5017662;28;97079;-50
2021/09/05 04:41:28;;;;;;;0.52;0.52;;;;;;;24.31;45.10;94665.03;5016935;28;99746;-54
2021/09/05 04:43:54;;;;;;;0.50;0.50;;;;;;;24.33;45.17;94657.13;5016757;28;99109;-51
2021/09/05 04:46:19;;;;;;;0.50;0.50;;;;;;;24.32;45.08;94661.84;5017168;28;96902;-56
2021/09/05 04:48:45;;;;;;;0.50;0.50;;;;;;;24.33;44.96;94659.88;5017721;28;97039;-52
2021/09/05 04:51:10;;;;;;;0.50;0.50;;;;;;;24.31;45.22;94663.03;5016778;28;99822;-54
2021/09/05 04:53:36;;;;;;;0.55;0.55;;;;;;;24.28;45.20;94664.69;5016954;28;99174;-48
2021/09/05 04:56:01;;;;;;;0.60;0.60;;;;;;;24.31;45.26;94668.56;5016775;28;96856;-53
2021/09/05 04:58:27;;;;;;;0.40;0.40;;;;;;;24.31;45.07;94662.28;5017130;28;96672;-50
2021/09/05 05:00:52;;;;;;;0.40;0.40;;;;;;;24.31;45.07;94662.28;5016390;28;99771;-55
2021/09/05 05:03:18;;;;;;;0.45;0.45;;;;;;;24.35;45.27;94663.00;5015944;28;106536;-52
2021/09/05 05:05:43;;;;;;;0.47;0.47;;;;;;;24.35;45.33;94663.00;5017069;28;96608;-51
2021/09/05 05:08:09;;;;;;;0.45;0.45;;;;;;;24.37;45.30;94666.09;5017219;28;96820;-53
2021/09/05 05:10:34;;;;;;;0.20;0.20;;;;;;;24.34;45.44;94667.72;5016537;28;99823;-53
2021/09/05 05:13:00;;;;;;;0.50;0.50;;;;;;;24.36;45.63;94670.06;5016726;28;101410;-49
2021/09/05 05:15:25;;;;;;;0.47;0.47;;;;;;;24.39;45.31;94674.75;5017001;28;97199;-55
2021/09/05 05:17:50;;;;;;;0.60;0.60;;;;;;;24.41;45.65;94669.56;5016660;28;96974;-52
2021/09/05 05:20:17;;;;;;;0.50;0.50;;;;;;;24.41;45.35;94683.38;5015724;28;107043;-55
2021/09/05 05:22:43;;;;;;;0.60;0.60;;;;;;;24.38;45.62;94673.94;5016258;28;99529;-55
2021/09/05 05:25:08;;;;;;;0.50;0.50;;;;;;;24.40;45.77;94676.31;5016683;28;96762;-49
2021/09/05 05:27:34;;;;;;;0.40;0.40;;;;;;;24.34;46.14;94672.47;5016631;28;97470;-54
2021/09/05 05:29:59;;;;;;;0.50;0.50;;;;;;;24.31;46.42;94679.59;5015981;28;104605;-51
2021/09/05 05:32:25;;;;;;;0.50;0.50;;;;;;;24.31;45.86;94678.84;5015935;28;99166;-51
2021/09/05 05:34:50;;;;;;;0.30;0.30;;;;;;;24.32;46.15;94683.91;5016460;28;96842;-55
2021/09/05 05:37:16;;;;;;;0.40;0.40;;;;;;;24.33;46.05;94681.94;5016966;28;96964;-53
2021/09/05 05:39:41;;;;;;;0.50;0.50;;;;;;;24.37;45.98;94685.44;5016303;28;98170;-50
2021/09/05 05:42:06;;;;;;;0.52;0.52;;;;;;;24.36;46.22;94686.63;5015945;28;98884;-53
2021/09/05 05:44:32;;;;;;;0.60;0.60;;;;;;;24.37;46.27;94688.19;5016172;28;96748;-54
2021/09/05 05:46:57;;;;;;;0.40;0.40;;;;;;;24.41;45.96;94700.72;5016244;28;97039;-55
2021/09/05 05:49:23;;;;;;;0.50;0.50;;;;;;;24.39;46.23;94696.81;5015690;28;102489;-54
2021/09/05 05:51:48;;;;;;;0.52;0.50;;;;;;;24.40;46.24;94696.38;5015869;28;99272;-53
2021/09/05 05:54:17;;;;;;;0.47;0.47;;;;;;;24.44;46.23;94704.59;5016316;28;96691;-55
2021/09/05 05:56:43;;;;;;;0.50;0.50;;;;;;;24.47;46.35;94703.75;5016200;28;97070;-50
2021/09/05 05:59:09;;;;;;;0.30;0.30;;;;;;;24.49;46.17;94695.81;5015661;28;99484;-50
2021/09/05 06:01:34;;;;;;;0.40;0.40;;;;;;;24.51;46.14;94698.16;5016054;28;97689;-54
2021/09/05 06:04:00;;;;;;;0.35;0.35;;;;;;;24.51;46.23;94704.47;5015753;28;96740;-50
2021/09/05 06:06:27;;;;;;;0.40;0.40;;;;;;;24.47;46.17;94692.69;5015951;28;96839;-53
2021/09/05 06:08:53;;;;;;;0.45;0.45;;;;;;;24.49;46.24;94700.56;5014856;28;99396;-52
2021/09/05 06:11:18;;;;;;;0.30;0.30;;;;;;;24.50;45.75;94696.59;5015636;28;98024;-53
2021/09/05 06:13:43;;;;;;;0.30;0.30;;;;;;;24.54;46.08;94698.09;5015586;28;96675;-56
2021/09/05 06:16:09;;;;;;;0.40;0.40;;;;;;;24.54;46.00;94700.84;5015568;28;96930;-55
2021/09/05 06:18:34;;;;;;;0.40;0.40;;;;;;;24.53;46.17;94702.06;5015334;28;99923;-55
2021/09/05 06:21:00;;;;;;;0.45;0.45;;;;;;;24.52;45.76;94705.25;5015789;28;99253;-56
2021/09/05 06:23:25;;;;;;;0.43;0.43;;;;;;;24.56;46.16;94708.72;5016003;28;96599;-53
2021/09/05 06:25:51;;;;;;;0.30;0.30;;;;;;;24.46;45.94;94701.41;5016051;28;96904;-55
2021/09/05 06:28:16;;;;;;;0.47;0.47;;;;;;;24.56;45.78;94709.50;5015129;28;99923;-56
2021/09/05 06:30:42;;;;;;;0.82;0.40;;;;;;;24.54;46.02;94709.13;5015154;28;102718;-55
2021/09/05 06:33:07;;;;;;;0.30;0.30;;;;;;;24.57;45.89;94713.81;5015300;28;96944;-54
2021/09/05 06:35:33;;;;;;;0.47;0.47;;;;;;;24.56;45.86;94717.78;5015529;28;96961;-49
2021/09/05 06:37:58;;;;;;;0.38;0.30;;;;;;;24.54;45.79;94719.41;5015177;28;99499;-56
2021/09/05 06:40:23;;;;;;;0.35;0.35;;;;;;;24.57;45.85;94719.31;5015319;28;97774;-52
2021/09/05 06:42:49;;;;;;;0.30;0.30;;;;;;;24.58;46.12;94729.16;5015453;28;96647;-55
2021/09/05 06:45:17;;;;;;;0.30;0.30;;;;;;;24.61;46.17;94724.00;5015690;28;96942;-57
2021/09/05 06:47:43;;;;;;;0.43;0.43;;;;;;;24.61;45.83;94724.00;5015238;28;99599;-55
2021/09/05 06:50:10;;;;;;;0.30;0.30;;;;;;;24.61;45.83;94721.25;5015245;28;101500;-54
2021/09/05 06:52:35;;;;;;;0.40;0.40;;;;;;;24.54;45.76;94709.13;5015333;28;96706;-50
2021/09/05 06:55:01;;;;;;;0.35;0.35;;;;;;;24.69;45.83;94728.19;5015572;28;96882;-52
2021/09/05 06:57:26;;;;;;;0.38;0.38;;;;;;;24.67;45.93;94734.16;5014174;28;101514;-54
2021/09/05 06:59:51;;;;;;;0.45;0.45;;;;;;;24.67;45.79;94738.88;5014864;28;99461;-53
2021/09/05 07:02:18;;;;;;;0.38;0.38;;;;;;;24.64;45.99;94739.72;5015293;28;96680;-55
2021/09/05 07:04:44;;;;;;;0.40;0.40;;;;;;;24.63;45.89;94738.16;5014944;28;96819;-55
2021/09/05 07:07:09;;;;;;;0.40;0.40;;;;;;;24.67;46.07;94741.63;5014800;28;99891;-51
2021/09/05 07:09:35;;;;;;;0.50;0.50;;;;;;;24.69;45.77;94742.00;5014501;28;98471;-53
2021/09/05 07:12:00;;;;;;;0.40;0.40;;;;;;;24.67;46.02;94745.19;5015171;28;96659;-56
2021/09/05 07:14:25;;;;;;;0.40;0.40;;;;;;;24.66;46.15;94748.38;5015645;28;96894;-50
2021/09/05 07:16:51;;;;;;;0.30;0.30;;;;;;;24.68;45.95;94745.97;5014325;28;99053;-56
2021/09/05 07:19:16;;;;;;;0.47;0.47;;;;;;;24.68;46.14;94751.47;5014729;28;103143;-54
2021/09/05 07:21:42;;;;;;;0.30;0.30;;;;;;;24.70;46.14;94760.91;5014451;28;97360;-52
2021/09/05 07:24:07;;;;;;;0.30;0.30;;;;;;;24.68;45.86;94754.25;5014752;28;96994;-53
2021/09/05 07:26:33;;;;;;;0.30;0.30;;;;;;;24.70;45.98;94757.38;5016296;28;99986;-57
2021/09/05 07:28:58;;;;;;;0.22;0.22;;;;;;;24.71;45.93;94761.69;5018071;28;99272;-54
2021/09/05 07:31:24;;;;;;;0.30;0.30;;;;;;;24.71;46.09;94767.22;5000468;28;96674;-51
2021/09/05 07:33:49;;;;;;;0.60;0.60;;;;;;;24.72;46.29;94752.22;5018702;28;96915;-51
2021/09/05 07:36:14;;;;;;;0.30;0.30;;;;;;;24.72;45.91;94757.75;5017845;28;99971;-50
2021/09/05 07:38:40;;;;;;;0.47;0.47;;;;;;;24.72;46.05;94757.75;5018421;28;99069;-52
2021/09/05 07:41:05;;;;;;;0.50;0.50;;;;;;;24.73;45.99;94764.06;5018516;28;96593;-50
2021/09/05 07:43:31;;;;;;;0.50;0.50;;;;;;;24.76;46.07;94758.47;5018401;28;96932;-49
2021/09/05 07:45:56;;;;;;;0.50;0.50;;;;;;;24.75;46.03;94762.41;5017199;28;99578;-57
2021/09/05 07:48:22;;;;;;;0.43;0.43;;;;;;;24.76;45.94;94758.47;5017651;28;99327;-53
2021/09/05 07:50:47;;;;;;;0.47;0.40;;;;;;;24.78;45.74;94761.56;5018175;28;96589;-53
2021/09/05 07:53:12;;;;;;;0.30;0.30;;;;;;;24.79;45.77;94763.13;5018172;28;96958;-57
2021/09/05 07:55:38;;;;;;;0.52;0.52;;;;;;;24.81;45.84;94763.50;5017565;28;99525;-54
2021/09/05 07:58:03;;;;;;;0.50;0.50;;;;;;;24.78;45.84;94760.78;5017711;28;98828;-55
2021/09/05 08:00:29;;;;;;;0.40;0.40;;;;;;;24.75;46.04;94759.66;5017983;28;96695;-54
2021/09/05 08:02:54;;;;;;;0.70;0.70;;;;;;;24.78;46.05;94760.78;5018087;28;96836;-54
2021/09/05 08:05:20;;;;;;;0.40;0.40;;;;;;;24.74;45.81;94755.34;5017312;28;99481;-55
2021/09/05 08:07:45;;;;;;;0.47;0.47;;;;;;;24.68;45.91;94745.97;5017408;28;99468;-55
2021/09/05 08:10:11;;;;;;;0.40;0.40;;;;;;;24.79;46.13;94757.63;5017444;28;96918;-53
2021/09/05 08:12:36;;;;;;;0.60;0.60;;;;;;;24.78;46.06;94756.06;5017904;28;96901;-52
2021/09/05 08:15:01;;;;;;;0.35;0.35;;;;;;;24.79;45.85;94773.38;5017068;28;108386;-55
2021/09/05 08:17:27;;;;;;;0.40;0.40;;;;;;;24.80;46.12;94761.13;5017409;28;97697;-53
2021/09/05 08:19:52;;;;;;;0.40;0.40;;;;;;;24.78;46.16;94760.78;5018318;28;97340;-53
2021/09/05 08:22:18;;;;;;;0.50;0.40;;;;;;;24.81;46.07;94754.41;5017059;28;97066;-59
2021/09/05 08:24:44;;;;;;;0.40;0.40;;;;;;;24.83;46.05;94761.09;5017086;28;98788;-50
2021/09/05 08:27:09;;;;;;;0.40;0.40;;;;;;;24.85;45.98;94753.16;5017223;28;98411;-50
2021/09/05 08:29:35;;;;;;;0.30;0.30;;;;;;;24.88;45.89;94756.28;5017624;28;96711;-54
2021/09/05 08:32:01;;;;;;;0.50;0.50;;;;;;;24.86;46.10;94763.00;5017531;28;96920;-52
2021/09/05 08:34:27;;;;;;;0.30;0.30;;;;;;;24.90;45.84;94762.16;5016411;28;99320;-52
2021/09/05 08:36:55;;;;;;;0.40;0.40;;;;;;;24.88;45.52;94757.03;5016742;28;99513;-54
2021/09/05 08:39:21;;;;;;;0.50;0.40;;;;;;;24.87;45.73;94752.72;5017663;28;96694;-56
2021/09/05 08:41:46;;;;;;;0.55;0.55;;;;;;;24.90;45.81;94760.16;5017381;28;96956;-51
2021/09/05 08:44:11;;;;;;;0.32;0.32;;;;;;;24.95;45.69;94759.66;4998924;28;103909;-53
2021/09/05 08:46:40;;;;;;;0.30;0.30;;;;;;;24.98;45.79;94758.03;5016623;28;99228;-49
2021/09/05 08:49:05;;;;;;;0.40;0.40;;;;;;;25.00;45.82;94761.94;5017381;28;96631;-50
2021/09/05 08:51:31;;;;;;;0.55;0.50;;;;;;;25.00;45.55;94753.63;5017560;28;96966;-53
2021/09/05 08:53:58;;;;;;;0.30;0.30;;;;;;;24.98;45.84;94747.75;4999027;28;98124;-52
2021/09/05 08:56:23;;;;;;;0.50;0.50;;;;;;;24.99;45.30;94748.56;4999107;28;96726;-54
2021/09/05 08:58:48;;;;;;;0.50;0.50;;;;;;;25.03;45.69;94749.22;5016503;28;96727;-53
2021/09/05 09:01:19;;;;;;;0.40;0.40;;;;;;;25.03;45.91;94743.69;5016874;28;96973;-50
2021/09/05 09:03:45;;;;;;;0.32;0.32;;;;;;;25.03;46.08;94743.69;5016694;28;98462;-52
2021/09/05 09:06:16;;;;;;;0.43;0.43;;;;;;;25.02;45.69;94742.19;4998939;28;99198;-56
2021/09/05 09:08:41;;;;;;;0.20;0.20;;;;;;;25.04;45.80;94748.03;5017138;28;96767;-49
2021/09/05 09:11:07;;;;;;;0.40;0.40;;;;;;;25.08;45.69;94751.50;5017194;28;96970;-51
2021/09/05 09:13:40;;;;;;;0.30;0.30;;;;;;;25.10;45.55;94749.09;4982004;28;99317;-54
2021/09/05 09:16:12;;;;;;;0.40;0.40;;;;;;;25.12;45.84;94756.97;5016613;28;99669;-52
2021/09/05 09:18:39;;;;;;;0.40;0.40;;;;;;;25.11;45.99;94736.81;5016946;28;96686;-50
2021/09/05 09:21:05;;;;;;;0.30;0.30;;;;;;;25.12;45.73;94741.16;5016882;28;96980;-53
2021/09/05 09:23:32;;;;;;;0.40;0.40;;;;;;;25.12;45.64;94741.16;5015675;28;99354;-55
2021/09/05 09:26:00;;;;;;;0.40;0.40;;;;;;;25.11;45.96;94734.06;5016053;28;99008;-52
2021/09/05 09:28:47;;;;;;;0.25;0.25;;;;;;;25.14;45.87;94727.69;5016550;28;96774;-51
2021/09/05 09:31:31;;;;;;;0.35;0.35;;;;;;;25.18;45.58;94724.84;5016770;28;96737;-51
2021/09/05 09:33:58;;;;;;;0.30;0.30;;;;;;;25.23;45.71;94729.09;5016077;28;102257;-53
2021/09/05 09:36:29;;;;;;;0.25;0.25;;;;;;;25.20;45.80;94729.94;5016119;28;99623;-54
2021/09/05 09:39:03;;;;;;;0.30;0.28;;;;;;;25.17;45.71;94731.59;5016728;28;96931;-51
2021/09/05 09:41:32;;;;;;;0.30;0.30;;;;;;;25.16;45.74;94725.28;5017073;28;96958;-51
2021/09/05 09:44:05;;;;;;;0.30;0.30;;;;;;;25.19;45.66;94723.66;5016254;28;99477;-53
2021/09/05 09:46:32;;;;;;;0.32;0.32;;;;;;;25.20;45.44;94725.22;4998401;28;99141;-49
2021/09/05 09:49:07;;;;;;;0.32;0.32;;;;;;;25.19;45.64;94722.84;5015023;28;96608;-50
2021/09/05 09:51:32;;;;;;;0.30;0.30;;;;;;;25.21;45.84;94725.97;5016551;28;96770;-47
2021/09/05 09:53:58;;;;;;;0.70;0.30;;;;;;;25.26;45.51;94722.72;5015992;28;97433;-54
2021/09/05 09:56:24;;;;;;;0.38;0.38;;;;;;;25.30;45.38;94709.59;5016030;28;99922;-50
2021/09/05 09:58:55;;;;;;;0.40;0.40;;;;;;;25.36;45.56;94718.94;5016205;28;96727;-49
2021/09/05 10:01:22;;;;;;;0.30;0.30;;;;;;;25.39;45.27;94723.59;5016309;28;96815;-58
2021/09/05 10:03:49;;;;;;;0.20;0.20;;;;;;;25.36;45.52;94710.63;5015558;28;99712;-49
2021/09/05 10:06:14;;;;;;;0.32;0.32;;;;;;;25.38;45.24;94713.75;5016246;28;99514;-47
2021/09/05 10:08:40;;;;;;;0.30;0.30;;;;;;;25.43;45.05;94718.78;5016121;28;96807;-47
2021/09/05 10:11:06;;;;;;;0.20;0.20;;;;;;;25.42;45.10;94708.91;5016056;28;96899;-52
2021/09/05 10:13:33;;;;;;;0.32;0.32;;;;;;;25.52;45.18;94707.13;4997344;28;99680;-51
2021/09/05 10:16:00;;;;;;;0.30;0.30;;;;;;;25.55;45.08;94708.28;4997846;28;99160;-56
2021/09/05 10:18:26;;;;;;;0.20;0.20;;;;;;;25.59;45.04;94717.28;5016098;28;96640;-55
2021/09/05 10:20:52;;;;;;;0.20;0.20;;;;;;;25.63;45.17;94712.41;4998217;28;96995;-51
2021/09/05 10:23:28;;;;;;;0.28;0.28;;;;;;;25.67;45.03;94707.56;5015304;28;98951;-53
2021/09/05 10:25:54;;;;;;;0.30;0.30;;;;;;;25.65;44.79;94710.00;5015197;28;99394;-50
2021/09/05 10:28:39;;;;;;;0.30;0.20;;;;;;;25.71;44.83;94713.78;5015852;28;96750;-55
2021/09/05 10:31:09;;;;;;;0.25;0.25;;;;;;;25.67;44.97;94704.03;5016133;28;96741;-53
2021/09/05 10:33:35;;;;;;;0.20;0.20;;;;;;;25.70;44.99;94705.94;5015446;28;99364;-56
2021/09/05 10:36:11;;;;;;;0.30;0.30;;;;;;;25.71;45.03;94708.25;5015698;28;99185;-54
2021/09/05 10:38:46;;;;;;;0.30;0.30;;;;;;;25.74;45.17;94706.63;5015335;28;96695;-52
2021/09/05 10:41:21;;;;;;;0.20;0.20;;;;;;;25.74;44.74;94712.94;5015565;28;96691;-52
2021/09/05 10:43:49;;;;;;;0.28;0.28;;;;;;;25.74;44.98;94707.41;5015111;28;99889;-53
2021/09/05 10:46:21;;;;;;;0.30;0.30;;;;;;;25.74;45.14;94704.63;5014934;28;99301;-58
2021/09/05 10:48:48;;;;;;;0.30;0.30;;;;;;;25.71;45.03;94702.72;5015660;28;96700;-51
2021/09/05 10:51:15;;;;;;;0.20;0.20;;;;;;;25.77;44.97;94704.97;5015634;28;96882;-50
2021/09/05 10:54:10;;;;;;;0.20;0.20;;;;;;;25.84;45.07;94704.81;5014934;28;99721;-51
2021/09/05 10:56:40;;;;;;;0.30;0.30;;;;;;;25.87;44.74;94698.41;5015453;28;99548;-48
2021/09/05 10:59:09;;;;;;;0.30;0.30;;;;;;;25.86;44.75;94696.84;5015306;28;96690;-47
2021/09/05 11:01:58;;;;;;;0.30;0.30;;;;;;;25.79;44.89;94697.03;5015385;28;96994;-47
2021/09/05 11:04:25;;;;;;;0.20;0.20;;;;;;;25.85;44.83;94706.38;5000820;28;99554;-50
2021/09/05 11:07:03;;;;;;;0.30;0.30;;;;;;;25.89;45.03;94701.53;5014576;28;99731;-47
2021/09/05 11:09:29;;;;;;;0.25;0.25;;;;;;;25.92;44.97;94700.66;5015506;28;96686;-49
2021/09/05 11:11:57;;;;;;;0.40;0.40;;;;;;;25.95;44.70;94699.78;5015295;28;96966;-49
2021/09/05 11:14:34;;;;;;;0.30;0.30;;;;;;;26.01;45.00;94700.84;5014657;28;99798;-56
2021/09/05 11:17:16;;;;;;;0.22;0.22;;;;;;;26.03;44.56;94701.16;5014816;28;98776;-51
2021/09/05 11:19:42;;;;;;;0.28;0.28;;;;;;;26.04;44.58;94696.41;5015240;28;96805;-49
2021/09/05 11:22:07;;;;;;;0.20;0.20;;;;;;;26.03;44.78;94701.16;5015470;28;96939;-49
2021/09/05 11:24:33;;;;;;;0.30;0.30;;;;;;;25.97;44.46;94700.13;5014553;28;99310;-47
2021/09/05 11:26:59;;;;;;;0.13;0.13;;;;;;;26.00;44.87;94702.03;5014458;28;99426;-54
2021/09/05 11:29:25;;;;;;;0.20;0.20;;;;;;;25.95;44.87;94696.22;5014520;28;96560;-49
2021/09/05 11:31:50;;;;;;;0.20;0.20;;;;;;;25.89;44.97;94701.53;5014713;28;97015;-52